Time;durP1;ratioP1;P1;durP2;ratioP2;P2;SDS_P1;SDS_P2;PMS_P1;PMS_P2;Temp;Humidity;BMP_temperature;BMP_pressure;BME280_temperature;BME280_humidity;BME280_pressure;Samples;Min_cycle;Max_cycle;Signal;HPM_P1;HPM_P2
2022/06/02 00:02:13;;;;;;;7.55;2.95;;;23.40;96.70;;;;;;5059370;28;20057;-83
2022/06/02 00:04:49;;;;;;;8.40;2.95;;;23.30;96.70;;;;;;5058859;28;20044;-84
2022/06/02 00:07:22;;;;;;;7.38;3.05;;;23.30;96.70;;;;;;5060875;28;20735;-85
2022/06/02 00:10:03;;;;;;;5.97;2.90;;;23.30;96.70;;;;;;5050235;28;20118;-84
2022/06/02 00:12:36;;;;;;;6.50;2.70;;;23.20;96.70;;;;;;5068361;28;20037;-84
2022/06/02 00:15:19;;;;;;;7.22;2.97;;;23.20;96.70;;;;;;5061251;28;20541;-84
2022/06/02 00:17:54;;;;;;;6.90;3.35;;;23.20;96.70;;;;;;5064317;28;20049;-84
2022/06/02 00:20:29;;;;;;;11.13;3.03;;;23.20;96.70;;;;;;5058077;28;20070;-83
2022/06/02 00:23:31;;;;;;;9.68;3.75;;;23.10;96.70;;;;;;5063542;28;20479;-84
2022/06/02 00:26:06;;;;;;;4.85;2.63;;;23.00;96.70;;;;;;4989620;28;20046;-84
2022/06/02 00:28:43;;;;;;;7.00;3.17;;;23.00;96.70;;;;;;4990693;28;20100;-85
2022/06/02 00:31:31;;;;;;;6.55;2.67;;;23.00;96.70;;;;;;4985313;28;20081;-84
2022/06/02 00:34:08;;;;;;;8.73;2.90;;;23.00;96.70;;;;;;4990843;28;20130;-84
2022/06/02 00:36:41;;;;;;;7.40;2.75;;;23.10;96.70;;;;;;5005012;28;20062;-85
2022/06/02 00:39:10;;;;;;;4.63;2.47;;;23.20;96.70;;;;;;4990336;28;20482;-84
2022/06/02 00:41:54;;;;;;;7.82;2.97;;;23.20;96.70;;;;;;4989796;28;20046;-84
2022/06/02 00:44:32;;;;;;;6.90;3.40;;;23.10;96.70;;;;;;4989504;28;20045;-85
2022/06/02 00:47:05;;;;;;;6.60;3.58;;;23.00;96.70;;;;;;4973828;28;20085;-85
2022/06/02 00:49:56;;;;;;;11.50;3.90;;;22.80;96.70;;;;;;4983564;28;20504;-85
2022/06/02 00:52:29;;;;;;;9.40;3.53;;;22.80;96.70;;;;;;4989589;28;20140;-84
2022/06/02 00:58:17;;;;;;;8.82;3.20;;;22.70;96.70;;;;;;5006211;28;20048;-84
2022/06/02 01:00:49;;;;;;;8.77;3.83;;;22.70;96.70;;;;;;4967699;28;20049;-85
2022/06/02 01:03:21;;;;;;;8.00;3.40;;;22.70;96.70;;;;;;5039943;28;20079;-85
2022/06/02 01:06:07;;;;;;;7.03;3.17;;;22.70;96.70;;;;;;5065427;28;20055;-84
2022/06/02 01:08:58;;;;;;;6.20;3.08;;;22.70;96.70;;;;;;5066083;28;20056;-84
2022/06/02 01:11:34;;;;;;;8.73;2.65;;;22.60;96.70;;;;;;5059548;28;20048;-83
2022/06/02 01:14:44;;;;;;;6.82;2.85;;;22.60;96.70;;;;;;5059493;28;20139;-84
2022/06/02 01:17:22;;;;;;;7.47;2.90;;;22.60;96.70;;;;;;5018348;28;20056;-84
2022/06/02 01:20:11;;;;;;;7.57;3.00;;;22.60;96.70;;;;;;5042337;28;20506;-84
2022/06/02 01:23:16;;;;;;;7.47;3.05;;;22.60;96.70;;;;;;5058342;28;20639;-85
2022/06/02 01:26:18;;;;;;;5.55;3.17;;;22.70;96.70;;;;;;5061330;28;20048;-84
2022/06/02 01:28:59;;;;;;;6.10;3.13;;;22.70;96.70;;;;;;5067935;28;20041;-84
2022/06/02 01:31:48;;;;;;;10.20;3.35;;;22.70;96.70;;;;;;5066195;28;20044;-84
2022/06/02 01:34:36;;;;;;;8.57;3.50;;;22.70;96.70;;;;;;5060671;28;20063;-84
2022/06/02 01:37:11;;;;;;;9.43;3.80;;;22.70;96.70;;;;;;5061786;28;20056;-83
2022/06/02 01:39:58;;;;;;;6.32;3.30;;;22.60;96.70;;;;;;5065131;28;20076;-84
2022/06/02 01:42:41;;;;;;;7.88;3.35;;;22.50;96.70;;;;;;5059957;28;20052;-84
2022/06/02 01:45:16;;;;;;;6.30;3.08;;;22.40;96.70;;;;;;5061323;28;20047;-84
2022/06/02 01:47:50;;;;;;;7.13;2.80;;;22.60;96.70;;;;;;5063561;28;20532;-85
2022/06/02 01:50:31;;;;;;;7.40;3.13;;;22.60;96.70;;;;;;5063107;28;20052;-84
2022/06/02 01:53:08;;;;;;;5.97;2.90;;;22.60;96.70;;;;;;5066511;28;20060;-83
2022/06/02 01:56:03;;;;;;;8.02;3.58;;;22.40;96.70;;;;;;5059720;28;20048;-84
2022/06/02 01:58:42;;;;;;;7.47;3.38;;;22.30;96.70;;;;;;5080289;28;20139;-84
2022/06/02 02:01:18;;;;;;;7.90;3.30;;;22.30;96.70;;;;;;5059117;28;20068;-84
2022/06/02 02:03:59;;;;;;;7.20;3.03;;;22.20;96.70;;;;;;5064906;28;20593;-84
2022/06/02 02:06:37;;;;;;;5.75;2.97;;;22.00;96.70;;;;;;5066034;28;20044;-84
2022/06/02 02:09:10;;;;;;;9.75;2.90;;;22.10;96.70;;;;;;5062962;28;20119;-84
2022/06/02 02:11:50;;;;;;;5.90;2.70;;;22.30;96.70;;;;;;5060000;28;20045;-84
2022/06/02 02:14:48;;;;;;;6.53;2.80;;;22.30;96.70;;;;;;5059591;28;20141;-84
2022/06/02 02:17:45;;;;;;;5.28;2.55;;;22.20;96.70;;;;;;5065369;28;20561;-85
2022/06/02 02:20:24;;;;;;;7.47;2.70;;;22.10;96.70;;;;;;5062467;28;20040;-87
2022/06/02 02:22:59;;;;;;;5.72;2.50;;;22.20;96.70;;;;;;5065428;28;20123;-87
2022/06/02 02:25:34;;;;;;;4.05;2.17;;;22.20;96.70;;;;;;5048364;28;20107;-87
2022/06/02 02:28:10;;;;;;;5.88;2.40;;;22.10;96.70;;;;;;5047310;28;20679;-86
2022/06/02 02:30:50;;;;;;;7.37;2.47;;;22.10;96.70;;;;;;5047083;28;20053;-87
2022/06/02 02:33:30;;;;;;;11.00;2.70;;;22.10;96.70;;;;;;5069440;28;20402;-87
2022/06/02 02:36:08;;;;;;;6.53;2.92;;;22.10;96.70;;;;;;5069130;28;20044;-86
2022/06/02 02:38:44;;;;;;;5.85;2.88;;;21.90;96.70;;;;;;5068643;28;20048;-87
2022/06/02 02:41:16;;;;;;;5.30;2.67;;;21.80;96.70;;;;;;5061606;28;20094;-85
2022/06/02 02:43:57;;;;;;;5.78;2.20;;;21.70;96.70;;;;;;5044573;28;20295;-87
2022/06/02 02:46:33;;;;;;;7.93;2.53;;;21.70;96.70;;;;;;5061160;28;20060;-86
2022/06/02 02:49:10;;;;;;;7.13;2.80;;;21.80;96.70;;;;;;5069304;28;20059;-87
2022/06/02 02:51:43;;;;;;;;;;;21.80;96.70;;;;;;5063017;28;20112;-87
2022/06/02 02:54:18;;;;;;;6.90;2.45;;;21.60;96.70;;;;;;5064882;28;20006;-88
2022/06/02 02:56:53;;;;;;;4.68;2.13;;;21.70;96.70;;;;;;5068725;28;20106;-87
2022/06/02 02:59:32;;;;;;;7.03;2.40;;;21.60;96.70;;;;;;5068437;28;20449;-87
2022/06/02 03:02:12;;;;;;;5.60;2.10;;;21.50;96.70;;;;;;5069220;28;20409;-86
2022/06/02 03:04:50;;;;;;;10.52;2.50;;;21.70;96.70;;;;;;5062199;28;20051;-87
2022/06/02 03:07:21;;;;;;;4.45;2.20;;;21.80;96.70;;;;;;5055725;28;20072;-87
2022/06/02 03:10:03;;;;;;;5.38;2.58;;;21.70;96.70;;;;;;5063211;28;20116;-87
2022/06/02 03:12:49;;;;;;;6.70;1.98;;;21.80;96.70;;;;;;5050386;28;20056;-87
2022/06/02 03:15:25;;;;;;;5.53;2.45;;;21.70;96.70;;;;;;5047007;28;20136;-87
2022/06/02 03:18:19;;;;;;;6.97;2.60;;;21.70;96.70;;;;;;5070906;28;20063;-87
2022/06/02 03:20:55;;;;;;;6.63;2.97;;;21.80;96.70;;;;;;5068175;28;20044;-87
2022/06/02 03:23:46;;;;;;;6.70;3.20;;;22.00;96.70;;;;;;5043337;28;20078;-87
2022/06/02 03:26:23;;;;;;;5.63;2.45;;;21.70;96.70;;;;;;5069942;28;20066;-87
2022/06/02 03:29:01;;;;;;;5.65;2.97;;;21.50;96.70;;;;;;5070390;28;20063;-86
2022/06/02 03:31:38;;;;;;;5.13;2.67;;;21.40;96.70;;;;;;5045922;28;20052;-87
2022/06/02 03:34:17;;;;;;;6.85;2.65;;;21.40;96.70;;;;;;5068388;28;20392;-87
2022/06/02 03:37:05;;;;;;;5.30;2.67;;;21.30;96.70;;;;;;5058592;28;20055;-87
2022/06/02 03:39:49;;;;;;;3.38;2.53;;;21.40;96.70;;;;;;5060821;28;20060;-85
2022/06/02 03:42:29;;;;;;;6.68;2.40;;;21.20;96.70;;;;;;5060802;28;20049;-84
2022/06/02 03:45:15;;;;;;;5.63;2.63;;;21.30;96.70;;;;;;5062536;28;20044;-84
2022/06/02 03:48:01;;;;;;;8.32;3.00;;;21.30;96.70;;;;;;5068445;28;20040;-85
2022/06/02 03:50:43;;;;;;;7.40;2.60;;;21.30;96.70;;;;;;5069293;28;20071;-84
2022/06/02 03:53:44;;;;;;;4.13;2.35;;;21.30;96.70;;;;;;5060031;28;20048;-84
2022/06/02 03:56:30;;;;;;;6.68;2.63;;;21.40;96.70;;;;;;5058019;28;20108;-84
2022/06/02 03:59:21;;;;;;;8.88;3.10;;;21.50;96.70;;;;;;5064838;28;20514;-84
2022/06/02 04:01:57;;;;;;;3.35;2.00;;;21.40;96.70;;;;;;5051422;28;20044;-84
2022/06/02 04:04:36;;;;;;;4.97;2.80;;;21.30;96.70;;;;;;5066687;28;20048;-84
2022/06/02 04:07:18;;;;;;;4.57;2.30;;;21.40;96.70;;;;;;5051205;28;20139;-85
2022/06/02 04:09:53;;;;;;;5.40;2.72;;;21.50;96.70;;;;;;5059872;28;20048;-84
2022/06/02 04:15:45;;;;;;;5.15;2.45;;;21.50;96.70;;;;;;5066502;28;20059;-84
2022/06/02 04:18:22;;;;;;;7.43;2.67;;;21.50;96.70;;;;;;5060272;28;20097;-84
2022/06/02 04:21:07;;;;;;;6.70;2.90;;;21.50;96.70;;;;;;5066486;28;20098;-84
2022/06/02 04:24:04;;;;;;;5.00;2.42;;;21.50;96.70;;;;;;5069568;28;20036;-84
2022/06/02 04:26:47;;;;;;;4.22;2.58;;;21.50;96.70;;;;;;5059958;28;20045;-84
2022/06/02 04:29:32;;;;;;;4.53;2.60;;;21.50;96.70;;;;;;5032255;28;20048;-84
2022/06/02 04:32:11;;;;;;;8.18;2.88;;;21.50;96.70;;;;;;5047636;28;20052;-84
2022/06/02 04:34:49;;;;;;;8.50;2.70;;;21.60;96.70;;;;;;5065208;28;20144;-84
2022/06/02 04:37:33;;;;;;;7.57;2.95;;;21.60;96.70;;;;;;5068422;28;20044;-85
2022/06/02 04:40:19;;;;;;;5.50;2.72;;;21.60;96.70;;;;;;5065535;28;20490;-85
2022/06/02 04:42:55;;;;;;;6.75;2.53;;;21.60;96.70;;;;;;5060006;28;20589;-85
2022/06/02 04:45:35;;;;;;;7.55;2.90;;;21.70;96.70;;;;;;5064809;28;20048;-85
2022/06/02 04:48:12;;;;;;;7.10;3.00;;;21.70;96.70;;;;;;5067332;28;20189;-84
2022/06/02 04:50:46;;;;;;;8.43;2.83;;;21.70;96.70;;;;;;5058274;28;20053;-84
2022/06/02 04:53:22;;;;;;;9.23;2.80;;;21.70;96.70;;;;;;5048471;28;20045;-85
2022/06/02 04:56:09;;;;;;;6.53;2.88;;;21.60;96.70;;;;;;5065668;28;20040;-85
2022/06/02 04:58:45;;;;;;;9.77;2.83;;;21.80;96.70;;;;;;5064134;28;20048;-87
2022/06/02 05:01:26;;;;;;;5.33;2.70;;;21.70;96.70;;;;;;5063605;28;20413;-87
2022/06/02 05:04:08;;;;;;;10.02;3.03;;;21.70;96.70;;;;;;5067163;28;20278;-87
2022/06/02 05:06:43;;;;;;;10.60;5.43;;;21.80;96.70;;;;;;5060412;28;20052;-87
2022/06/02 05:09:17;;;;;;;10.23;6.38;;;21.70;96.70;;;;;;5067489;28;20059;-88
2022/06/02 05:11:59;;;;;;;12.25;5.72;;;21.60;96.70;;;;;;5050718;28;20060;-87
2022/06/02 05:14:34;;;;;;;7.60;4.38;;;21.80;96.70;;;;;;5050889;28;20051;-87
2022/06/02 05:17:43;;;;;;;8.55;3.97;;;21.80;96.70;;;;;;5067415;28;20045;-87
2022/06/02 05:20:42;;;;;;;7.70;3.88;;;21.90;96.70;;;;;;5040959;28;20052;-88
2022/06/02 05:23:44;;;;;;;7.28;3.60;;;21.90;96.70;;;;;;5064695;28;20044;-87
2022/06/02 05:26:30;;;;;;;6.47;3.38;;;21.90;96.70;;;;;;5056447;28;20056;-88
2022/06/02 05:29:13;;;;;;;6.22;3.28;;;21.90;96.70;;;;;;5048961;28;20461;-87
2022/06/02 05:32:09;;;;;;;9.20;3.03;;;21.90;96.70;;;;;;5066816;28;20658;-86
2022/06/02 05:35:00;;;;;;;11.48;4.03;;;21.90;96.70;;;;;;5058149;28;20052;-85
2022/06/02 05:37:47;;;;;;;10.38;4.35;;;21.80;96.70;;;;;;5014615;28;20755;-85
2022/06/02 05:40:21;;;;;;;15.55;6.72;;;21.90;96.70;;;;;;5059087;28;20044;-85
2022/06/02 05:43:00;;;;;;;11.55;5.85;;;22.00;96.70;;;;;;5057665;28;20048;-84
2022/06/02 05:45:50;;;;;;;11.88;5.22;;;22.10;96.70;;;;;;5062112;28;20094;-85
2022/06/02 05:48:36;;;;;;;11.68;4.45;;;22.10;96.70;;;;;;5045991;28;20582;-86
2022/06/02 05:51:11;;;;;;;10.10;4.15;;;22.30;96.70;;;;;;5066284;28;20414;-85
2022/06/02 05:53:52;;;;;;;6.18;3.50;;;22.40;96.70;;;;;;5062709;28;20044;-86
2022/06/02 05:56:34;;;;;;;11.98;3.95;;;22.50;96.70;;;;;;5057897;28;20056;-86
2022/06/02 05:59:31;;;;;;;6.85;3.40;;;22.60;96.70;;;;;;5065723;28;20058;-86
2022/06/02 06:02:21;;;;;;;9.80;3.80;;;22.50;96.70;;;;;;5049497;28;20041;-86
2022/06/02 06:05:11;;;;;;;10.60;4.80;;;22.50;96.70;;;;;;5067433;28;20127;-86
2022/06/02 06:08:18;;;;;;;9.05;5.20;;;22.70;96.70;;;;;;5059412;28;20075;-85
2022/06/02 06:11:04;;;;;;;8.48;4.22;;;22.70;96.70;;;;;;4994045;28;20073;-86
2022/06/02 06:14:01;;;;;;;11.43;4.00;;;22.80;96.70;;;;;;5059474;28;20075;-86
2022/06/02 06:16:36;;;;;;;8.85;4.93;;;22.90;96.70;;;;;;5060969;28;20098;-86
2022/06/02 06:19:27;;;;;;;10.52;4.13;;;22.90;96.70;;;;;;5069465;28;20048;-85
2022/06/02 06:22:05;;;;;;;9.82;4.20;;;23.00;96.70;;;;;;5068618;28;20040;-86
2022/06/02 06:24:52;;;;;;;10.27;4.43;;;22.90;96.70;;;;;;5070138;28;20056;-87
2022/06/02 06:27:31;;;;;;;7.63;3.83;;;22.80;96.70;;;;;;5050727;28;20060;-86
2022/06/02 06:30:07;;;;;;;10.20;4.30;;;22.80;96.70;;;;;;5051189;28;20549;-87
2022/06/02 06:32:46;;;;;;;11.10;3.92;;;22.90;96.70;;;;;;5064446;28;20058;-87
2022/06/02 06:35:40;;;;;;;6.45;3.58;;;22.90;96.70;;;;;;5060868;28;20049;-87
2022/06/02 06:38:31;;;;;;;8.43;5.10;;;23.00;96.70;;;;;;5065127;28;20052;-87
2022/06/02 06:41:28;;;;;;;8.90;3.67;;;23.00;96.70;;;;;;5053606;28;20052;-87
2022/06/02 06:44:09;;;;;;;8.23;4.18;;;23.00;96.70;;;;;;5064136;28;20051;-87
2022/06/02 06:46:45;;;;;;;7.68;4.07;;;23.10;96.70;;;;;;5060284;28;20057;-87
2022/06/02 06:49:18;;;;;;;5.70;3.80;;;23.10;96.70;;;;;;5062579;28;20127;-87
2022/06/02 06:52:05;;;;;;;8.98;3.83;;;23.20;96.70;;;;;;5066847;28;20109;-87
2022/06/02 06:54:44;;;;;;;7.05;3.58;;;23.20;96.70;;;;;;5069734;28;20052;-87
2022/06/02 06:57:19;;;;;;;8.52;3.47;;;23.30;96.70;;;;;;5069106;28;20052;-88
2022/06/02 06:59:58;;;;;;;7.03;3.03;;;23.30;96.70;;;;;;5069715;28;20494;-87
2022/06/02 07:02:36;;;;;;;5.07;2.63;;;23.40;96.70;;;;;;5053523;28;20051;-88
2022/06/02 07:05:11;;;;;;;6.90;3.10;;;23.50;96.70;;;;;;5069250;28;20537;-86
2022/06/02 07:07:48;;;;;;;7.55;2.92;;;23.60;96.70;;;;;;5064777;28;20045;-85
2022/06/02 07:10:23;;;;;;;6.88;3.20;;;23.60;96.70;;;;;;5041213;28;20129;-85
2022/06/02 07:13:01;;;;;;;6.57;2.97;;;23.70;96.70;;;;;;5069515;28;20574;-85
2022/06/02 07:15:46;;;;;;;8.68;3.20;;;23.70;96.70;;;;;;5068174;28;20579;-85
2022/06/02 07:18:33;;;;;;;5.93;3.03;;;23.80;96.70;;;;;;5068714;28;20055;-85
2022/06/02 07:21:11;;;;;;;7.35;3.50;;;23.80;96.70;;;;;;5043558;28;20049;-86
2022/06/02 07:23:56;;;;;;;6.22;2.90;;;23.80;96.70;;;;;;5059940;28;20556;-86
2022/06/02 07:26:40;;;;;;;7.47;3.75;;;23.90;96.70;;;;;;5062407;28;20037;-85
2022/06/02 07:29:18;;;;;;;6.25;3.25;;;24.00;96.70;;;;;;5064718;28;20041;-85
2022/06/02 07:32:15;;;;;;;10.82;4.13;;;24.10;96.70;;;;;;5044523;28;20049;-86
2022/06/02 07:35:08;;;;;;;5.63;3.00;;;24.00;96.70;;;;;;5067939;28;20516;-86
2022/06/02 07:37:43;;;;;;;5.55;3.50;;;24.00;96.70;;;;;;5053828;28;20298;-87
2022/06/02 07:40:44;;;;;;;7.68;3.25;;;24.20;96.70;;;;;;5049495;28;20069;-86
2022/06/02 07:43:41;;;;;;;7.50;3.13;;;24.40;96.70;;;;;;5041322;28;20052;-85
2022/06/02 07:46:37;;;;;;;8.00;3.08;;;24.40;96.70;;;;;;5058837;28;20852;-85
2022/06/02 07:49:24;;;;;;;16.67;3.90;;;24.40;96.70;;;;;;5035377;28;20387;-86
2022/06/02 07:51:58;;;;;;;8.35;2.58;;;24.50;96.70;;;;;;5060472;28;20079;-85
2022/06/02 07:54:35;;;;;;;5.85;2.40;;;24.60;96.70;;;;;;5047852;28;20143;-85
2022/06/02 07:57:14;;;;;;;6.70;2.50;;;24.70;96.70;;;;;;5062441;28;20051;-85
2022/06/02 07:59:57;;;;;;;11.75;3.10;;;24.80;96.70;;;;;;5067098;28;20044;-82
2022/06/02 08:02:47;;;;;;;7.32;3.00;;;24.90;96.70;;;;;;5060827;28;20139;-86
2022/06/02 08:05:28;;;;;;;7.80;2.85;;;24.90;96.70;;;;;;5066640;28;20063;-86
2022/06/02 08:08:02;;;;;;;6.22;2.60;;;25.00;96.70;;;;;;5042147;28;20257;-84
2022/06/02 08:10:43;;;;;;;8.05;3.10;;;25.10;96.70;;;;;;5062842;28;20470;-85
2022/06/02 08:13:22;;;;;;;12.18;3.20;;;25.20;96.70;;;;;;5043519;28;20053;-85
2022/06/02 08:15:57;;;;;;;10.05;2.67;;;25.20;96.70;;;;;;5066526;28;20052;-85
2022/06/02 08:18:42;;;;;;;8.15;2.70;;;25.30;96.70;;;;;;5066364;28;20875;-82
2022/06/02 08:21:20;;;;;;;7.47;2.80;;;25.40;96.70;;;;;;5067274;28;20048;-84
2022/06/02 08:24:25;;;;;;;10.48;2.50;;;25.30;96.70;;;;;;5065310;28;20072;-84
2022/06/02 08:27:03;;;;;;;7.03;2.72;;;25.30;96.70;;;;;;5057705;28;20036;-82
2022/06/02 08:29:41;;;;;;;9.32;3.00;;;25.40;96.70;;;;;;5048374;28;20053;-83
2022/06/02 08:32:26;;;;;;;9.13;2.95;;;25.50;96.70;;;;;;5067067;28;20055;-83
2022/06/02 08:35:07;;;;;;;5.10;2.65;;;25.60;96.70;;;;;;5065980;28;20051;-84
2022/06/02 08:37:47;;;;;;;8.00;2.75;;;25.70;96.70;;;;;;5067094;28;20510;-83
2022/06/02 08:41:33;;;;;;;8.13;3.10;;;25.90;96.70;;;;;;5065534;28;20563;-84
2022/06/02 08:44:36;;;;;;;5.90;2.88;;;26.10;96.70;;;;;;5067087;28;20055;-85
2022/06/02 08:47:38;;;;;;;4.07;2.72;;;26.00;96.70;;;;;;5067114;28;20052;-83
2022/06/02 08:50:26;;;;;;;8.18;2.72;;;26.10;96.70;;;;;;5054807;28;20052;-83
2022/06/02 08:53:30;;;;;;;5.43;2.78;;;26.20;96.70;;;;;;5049764;28;20144;-83
2022/06/02 08:56:55;;;;;;;5.28;2.42;;;26.30;96.70;;;;;;5049205;28;20047;-83
2022/06/02 08:59:59;;;;;;;5.07;2.35;;;26.40;96.70;;;;;;4991257;28;20781;-85
2022/06/02 09:03:02;;;;;;;9.82;2.40;;;26.60;96.70;;;;;;5029780;28;20056;-82
2022/06/02 09:06:02;;;;;;;7.10;2.45;;;26.60;96.70;;;;;;5061235;28;20067;-81
2022/06/02 09:09:08;;;;;;;6.80;2.22;;;26.80;96.70;;;;;;5065041;28;20048;-86
2022/06/02 09:11:52;;;;;;;7.20;2.72;;;26.90;96.70;;;;;;5037671;28;20406;-87
2022/06/02 09:14:59;;;;;;;5.57;2.25;;;27.00;96.70;;;;;;5038998;28;20056;-88
2022/06/02 09:17:29;;;;;;;5.60;2.40;;;27.10;96.70;;;;;;5064994;28;20040;-86
2022/06/02 09:20:13;;;;;;;5.63;2.42;;;27.10;96.70;;;;;;5063190;28;20216;-83
2022/06/02 09:23:09;;;;;;;5.20;2.42;;;27.10;96.70;;;;;;5059137;28;20601;-82
2022/06/02 09:25:59;;;;;;;9.48;2.60;;;27.20;96.70;;;;;;5061774;28;20070;-83
2022/06/02 09:29:04;;;;;;;6.57;2.42;;;27.30;96.70;;;;;;5043369;28;20048;-82
2022/06/02 09:31:51;;;;;;;6.50;2.67;;;27.40;96.70;;;;;;5032331;28;20617;-83
2022/06/02 09:34:37;;;;;;;7.97;2.88;;;27.50;96.70;;;;;;5061960;28;20492;-82
2022/06/02 09:37:37;;;;;;;5.25;2.42;;;27.50;96.70;;;;;;5063281;28;20199;-82
2022/06/02 09:40:31;;;;;;;7.30;2.30;;;27.60;96.70;;;;;;5065038;28;20056;-85
2022/06/02 09:43:20;;;;;;;6.85;2.28;;;27.70;96.70;;;;;;5064119;28;20144;-83
2022/06/02 09:46:04;;;;;;;7.70;2.50;;;27.80;96.70;;;;;;5061781;28;20057;-83
2022/06/02 09:49:13;;;;;;;10.05;2.47;;;27.90;96.70;;;;;;5051076;28;20601;-85
2022/06/02 09:51:52;;;;;;;4.85;2.17;;;27.80;96.70;;;;;;5065630;28;20048;-84
2022/06/02 09:54:34;;;;;;;4.63;2.03;;;27.80;96.70;;;;;;5044620;28;20060;-85
2022/06/02 10:00:19;;;;;;;7.57;2.08;;;28.00;96.70;;;;;;5058142;28;20052;-83
2022/06/02 10:03:07;;;;;;;6.70;2.42;;;27.90;96.70;;;;;;5061582;28;20128;-82
2022/06/02 10:05:54;;;;;;;5.30;2.10;;;28.00;96.70;;;;;;5064313;28;20109;-82
2022/06/02 10:08:33;;;;;;;8.00;2.30;;;28.00;96.70;;;;;;5055464;28;20134;-81
2022/06/02 10:11:11;;;;;;;10.45;2.65;;;28.20;96.70;;;;;;5062720;28;20115;-80
2022/06/02 10:14:02;;;;;;;6.03;2.60;;;28.50;96.70;;;;;;5057906;28;20102;-82
2022/06/02 10:17:11;;;;;;;4.47;2.20;;;28.40;96.70;;;;;;5061434;28;20585;-81
2022/06/02 10:20:18;;;;;;;7.00;2.65;;;28.50;96.70;;;;;;4985566;28;20054;-78
2022/06/02 10:22:58;;;;;;;6.32;2.35;;;28.50;96.70;;;;;;4999094;28;20050;-81
2022/06/02 10:26:03;;;;;;;6.40;2.60;;;28.50;96.70;;;;;;5051786;28;20141;-79
2022/06/02 10:29:21;;;;;;;5.32;2.42;;;28.70;96.70;;;;;;5053186;28;20056;-80
2022/06/02 10:32:04;;;;;;;;;;;28.90;96.70;;;;;;5046161;28;20044;-80
2022/06/02 10:35:02;;;;;;;6.35;2.15;;;29.20;96.70;;;;;;5063638;28;20375;-82
2022/06/02 10:37:54;;;;;;;5.53;1.90;;;29.40;96.70;;;;;;5060499;28;20537;-80
2022/06/02 10:40:45;;;;;;;5.57;2.45;;;29.50;96.70;;;;;;5046585;28;20048;-80
2022/06/02 10:43:52;;;;;;;3.45;2.25;;;29.40;96.70;;;;;;5061783;28;20052;-80
2022/06/02 10:46:52;;;;;;;5.90;2.33;;;29.20;96.70;;;;;;5058052;28;20407;-81
2022/06/02 10:49:30;;;;;;;6.05;2.30;;;29.00;96.70;;;;;;5042364;28;20040;-80
2022/06/02 10:52:52;;;;;;;5.22;2.10;;;29.00;96.70;;;;;;5058946;28;20056;-81
2022/06/02 10:55:51;;;;;;;7.95;2.55;;;29.40;96.70;;;;;;5064242;28;20045;-80
2022/06/02 10:58:54;;;;;;;5.15;2.40;;;29.80;96.70;;;;;;5057705;28;20041;-82
2022/06/02 11:01:46;;;;;;;3.63;2.00;;;29.90;96.70;;;;;;5064844;28;20059;-82
2022/06/02 11:04:50;;;;;;;5.82;2.58;;;29.70;96.70;;;;;;5069639;28;20048;-81
2022/06/02 11:08:12;;;;;;;5.18;2.10;;;29.80;96.70;;;;;;5038367;28;20449;-81
2022/06/02 11:11:00;;;;;;;4.05;2.00;;;29.90;96.70;;;;;;5065641;28;20054;-81
2022/06/02 11:13:56;;;;;;;5.03;1.90;;;30.00;96.70;;;;;;5065801;28;20052;-81
2022/06/02 11:17:01;;;;;;;3.92;2.10;;;30.00;96.70;;;;;;5061996;28;20053;-80
2022/06/02 11:20:01;;;;;;;5.80;2.35;;;30.30;96.70;;;;;;5061672;28;20123;-80
2022/06/02 11:23:11;;;;;;;3.22;1.90;;;30.60;96.70;;;;;;5062985;28;20060;-80
2022/06/02 11:26:27;;;;;;;5.38;2.10;;;30.70;96.70;;;;;;5002189;28;20154;-80
2022/06/02 11:29:47;;;;;;;7.53;2.67;;;30.70;96.70;;;;;;5057669;28;20458;-79
2022/06/02 11:32:59;;;;;;;6.30;2.47;;;30.90;96.70;;;;;;5035248;28;20390;-79
2022/06/02 11:35:51;;;;;;;7.70;2.35;;;31.10;96.70;;;;;;5021190;28;20068;-81
2022/06/02 11:38:48;;;;;;;6.43;2.25;;;31.20;96.70;;;;;;5042239;28;20057;-82
2022/06/02 11:41:29;;;;;;;6.80;2.20;;;31.20;96.70;;;;;;5060374;28;20048;-81
2022/06/02 11:44:05;;;;;;;4.45;2.22;;;31.00;96.70;;;;;;5045597;28;20056;-80
2022/06/02 11:47:06;;;;;;;5.03;2.17;;;31.00;96.70;;;;;;5065737;28;20067;-80
2022/06/02 11:50:13;;;;;;;5.03;2.15;;;30.90;96.70;;;;;;5051998;28;20037;-80
2022/06/02 11:53:08;;;;;;;7.63;2.73;;;31.00;96.70;;;;;;5067371;28;20048;-82
2022/06/02 11:55:42;;;;;;;4.90;2.47;;;30.90;96.70;;;;;;5066427;28;20668;-81
2022/06/02 11:58:41;;;;;;;4.88;2.30;;;31.20;96.70;;;;;;5068062;28;20094;-82
2022/06/02 12:01:40;;;;;;;2.97;2.05;;;31.50;96.70;;;;;;5062516;28;20053;-81
2022/06/02 12:04:31;;;;;;;3.75;2.10;;;31.70;96.70;;;;;;5059521;28;20495;-81
2022/06/02 12:07:42;;;;;;;5.70;2.30;;;31.40;96.70;;;;;;5045416;28;20059;-80
2022/06/02 12:10:40;;;;;;;8.60;2.45;;;31.10;96.70;;;;;;5056654;28;20067;-81
2022/06/02 12:13:32;;;;;;;6.70;1.98;;;31.50;96.70;;;;;;5059263;28;20037;-80
2022/06/02 12:16:18;;;;;;;4.65;2.25;;;32.10;96.50;;;;;;5062908;28;20052;-80
2022/06/02 12:19:08;;;;;;;6.30;2.30;;;32.30;95.40;;;;;;5064114;28;20114;-82
2022/06/02 12:22:00;;;;;;;3.95;2.30;;;32.30;94.80;;;;;;5065489;28;20032;-80
2022/06/02 12:25:02;;;;;;;4.45;2.42;;;32.40;95.80;;;;;;5064714;28;20176;-80
2022/06/02 12:28:05;;;;;;;7.05;2.50;;;32.60;94.60;;;;;;5061486;28;20144;-82
2022/06/02 12:30:50;;;;;;;4.55;2.28;;;32.80;95.10;;;;;;5064421;28;20056;-80
2022/06/02 12:33:53;;;;;;;6.15;2.25;;;33.10;95.40;;;;;;5060006;28;20096;-80
2022/06/02 12:36:55;;;;;;;8.07;2.58;;;32.90;93.60;;;;;;5059239;28;20120;-81
2022/06/02 12:39:50;;;;;;;6.00;2.13;;;32.90;93.20;;;;;;5043473;28;20083;-80
2022/06/02 12:42:59;;;;;;;6.18;2.40;;;32.80;94.80;;;;;;5056775;28;20049;-80
2022/06/02 12:45:46;;;;;;;4.22;2.45;;;32.70;95.20;;;;;;4974907;28;20161;-79
2022/06/02 12:48:41;;;;;;;5.05;1.73;;;32.70;93.90;;;;;;5059476;28;20068;-80
2022/06/02 12:51:54;;;;;;;6.53;2.05;;;32.80;94.30;;;;;;5044632;28;20060;-80
2022/06/02 12:55:17;;;;;;;6.15;2.40;;;32.80;93.70;;;;;;5055182;28;20055;-80
2022/06/02 12:58:13;;;;;;;5.10;2.00;;;33.20;93.50;;;;;;5065221;28;20053;-79
2022/06/02 13:01:05;;;;;;;7.53;1.98;;;32.90;93.90;;;;;;5054661;28;21006;-80
2022/06/02 13:04:11;;;;;;;4.97;1.90;;;32.90;94.70;;;;;;5062026;28;20103;-80
2022/06/02 13:07:25;;;;;;;8.32;2.50;;;33.40;94.90;;;;;;5044977;28;20036;-80
2022/06/02 13:10:12;;;;;;;4.57;1.98;;;33.70;93.10;;;;;;5044126;28;20567;-80
2022/06/02 13:13:10;;;;;;;4.57;2.08;;;34.00;92.90;;;;;;5057802;28;20099;-80
2022/06/02 13:16:01;;;;;;;4.75;2.10;;;34.40;92.30;;;;;;5041841;28;20048;-81
2022/06/02 13:19:05;;;;;;;6.00;2.33;;;34.60;91.40;;;;;;5044594;28;20135;-80
2022/06/02 13:22:10;;;;;;;5.95;2.33;;;34.70;91.30;;;;;;5057726;28;20064;-79
2022/06/02 13:25:16;;;;;;;3.65;2.00;;;34.90;90.80;;;;;;5058536;28;20048;-79
2022/06/02 13:28:12;;;;;;;3.42;1.92;;;34.80;91.10;;;;;;5038422;28;20071;-80
2022/06/02 13:31:30;;;;;;;5.03;1.90;;;34.40;91.60;;;;;;5050430;28;20504;-80
2022/06/02 13:34:41;;;;;;;6.97;2.20;;;34.70;92.10;;;;;;4971081;28;20055;-80
2022/06/02 13:37:39;;;;;;;5.15;1.98;;;35.10;91.50;;;;;;5058307;28;20103;-80
2022/06/02 13:40:34;;;;;;;4.13;1.88;;;35.40;91.00;;;;;;5057565;28;20045;-80
2022/06/02 13:43:27;;;;;;;6.88;2.00;;;35.70;90.40;;;;;;5060836;28;20060;-80
2022/06/02 13:46:34;;;;;;;5.38;2.28;;;35.90;89.70;;;;;;5061675;28;20048;-80
2022/06/02 13:49:40;;;;;;;5.10;2.25;;;35.80;89.50;;;;;;5076671;28;20045;-80
2022/06/02 13:52:50;;;;;;;6.35;2.47;;;36.00;89.10;;;;;;5055579;28;20076;-79
2022/06/02 13:58:58;;;;;;;5.55;2.50;;;35.70;91.60;;;;;;5056220;28;20040;-80
2022/06/02 14:01:52;;;;;;;6.93;3.03;;;35.70;90.80;;;;;;5004380;28;20057;-79
2022/06/02 14:04:48;;;;;;;6.30;2.60;;;35.70;90.50;;;;;;5013866;28;20085;-79
2022/06/02 14:07:37;;;;;;;6.75;2.53;;;35.80;90.50;;;;;;5018097;28;20064;-79
2022/06/02 14:10:24;;;;;;;7.45;3.00;;;35.70;91.70;;;;;;5000621;28;20049;-79
2022/06/02 14:13:27;;;;;;;6.43;2.90;;;35.90;92.10;;;;;;5018125;28;20133;-80
2022/06/02 14:16:09;;;;;;;5.85;2.58;;;35.70;92.00;;;;;;4997982;28;20062;-79
2022/06/02 14:18:55;;;;;;;9.50;2.65;;;35.70;92.60;;;;;;5011766;28;20061;-79
2022/06/02 14:21:27;;;;;;;;;;;35.70;92.90;;;;;;5001157;28;20054;-80
2022/06/02 14:24:05;;;;;;;5.68;2.83;;;35.70;93.60;;;;;;5000904;28;20012;-79
2022/06/02 14:26:48;;;;;;;7.82;3.70;;;35.60;94.50;;;;;;4996428;28;20045;-78
2022/06/02 14:29:31;;;;;;;6.07;2.75;;;35.60;93.30;;;;;;5016530;28;20519;-79
2022/06/02 14:32:13;;;;;;;17.70;4.40;;;35.70;94.20;;;;;;5023147;28;20107;-79
2022/06/02 14:34:54;;;;;;;6.18;2.90;;;35.80;94.70;;;;;;5003929;28;20061;-79
2022/06/02 14:37:27;;;;;;;9.05;2.97;;;35.50;94.60;;;;;;5007248;28;20049;-80
2022/06/02 14:40:02;;;;;;;8.70;3.30;;;35.40;95.90;;;;;;5066019;28;20463;-80
2022/06/02 14:43:04;;;;;;;7.70;3.50;;;35.70;94.90;;;;;;5061072;28;20522;-80
2022/06/02 14:46:06;;;;;;;8.40;2.88;;;35.90;94.60;;;;;;5063831;28;20053;-79